Fritch, TX (79036)

3:46 AM CST on December 03, 2016 (GMT -0600)
Calle Cuesta Drive | | Change Station

Elev 3218 ft 35.63 °N, 101.57 °W | Updated 1 minute ago

Overcast
Overcast
35.1 °F
Feels Like 35 °F
N
0.0
Wind Variable Wind from North
Gusts 1.2 mph

Today
High -- | Low -- °F
--% Chance of Precip.
Yesterday
High -- | Low -- °F
Precip. -- in
Pressure 30.17 in
Visibility 2.5 miles
Clouds Overcast 200 ft
Windchill 35 °F
Dew Point 32 °F
Humidity 87%
Rainfall 0.04 in
Snow Depth Not available.
7:39 AM 5:32 PM
Waxing Crescent, 14% visible
SPECI KBGD 030938Z AUTO 02009KT 2 1/2SM BR OVC002 02/02 A3017 RMK AO2 RAE02UPB02E17 P0000 T00170017
Pressure 30.17 in
Visibility 2.5 miles
Clouds Overcast 200 ft
Windchill 35 °F
Dew Point 32 °F
Humidity 87%
Rainfall 0.04 in
Snow Depth Not available.
7:39 AM 5:32 PM
Waxing Crescent, 14% visible
SPECI KBGD 030938Z AUTO 02009KT 2 1/2SM BR OVC002 02/02 A3017 RMK AO2 RAE02UPB02E17 P0000 T00170017

10-Day Weather Forecast

Almanac

Astronomy

Dec. 03, 2016 Rise Set
Actual Time
Civil Twilight
Nautical Twilight
Astronomical Twilight
Moon
Length of Visible Light
Length of Day
Tomorrow will be .
, % of the Moon is Illuminated

Today's Extremes

State Highs State Lows

Community

WunderPhotos

Upload Photos

1,955,434 photos uploaded!

WunderBlog® & News

Nearby

Air Quality

  Air Quality AQ Index Pollutant
Not available.

Snow Depth

Station Depth Elevation

Earthquake Activity

City Distance Mag. Time & Date
Minimum magnitude displayed is 2.5.

Coastal Water Temperatures

Place Temperature

Stations

Nearby Weather Stations

Station Location Temp. Windchill Dew Point Humidity Wind Precip. Elev Updated Type
                   

Watches & Warnings

There are currently no watches in effect.